• Join FlightAware (Why Join?)
  • Login
  • US Flag 
07:32AM EDT


 

Airport Tracker/Info


-or-


 

Live Flight TrackerFlight Track Log ✈ SWA3206 ✈ 03-May-2013 ✈ KPHL - KMDW

Flight Track Log - Related Links

Times and Time Zones

All times are in EDT time to prevent confusion due to time zone crossing. See the SWA3206 flight status page for this flight to view local times or setup timezone preferences in your user account.

Time Position Orientation Groundspeed Altitude Reporting Facility
EDT Latitude Longitude Course Direction KTS MPH feet Rate Location/Type
11:27AM 39.8833 -75.2167 90° East 145 167 900  Level Philadelphia TRACON
11:28AM 39.8833 -75.1833 90° East 157 181 2,100 2,340 Climbing Philadelphia TRACON
11:29AM 39.9167 -75.1333 49° Northeast 212 244 4,700 2,700 Climbing Philadelphia TRACON
11:30AM 39.9833 -75.1333 360° North 252 290 7,500 2,640 Climbing Philadelphia TRACON
11:31AM 40.0333 -75.2167 308° West 315 362 10,000 1,680 Climbing Philadelphia TRACON
11:32AM 40.1094 -75.3658 304° West 350 403 12,000 1,140 Climbing New York Center
11:33AM 40.1758 -75.4814 307° West 350 403 13,000 480 Climbing New York Center
11:34AM 40.2325 -75.5750 308° West 357 411 13,000 360 Level New York Center
11:35AM 40.2972 -75.6722 311° West 357 411 13,800 1,980 Climbing New York Center
11:36AM 40.3697 -75.7808 311° West 362 417 17,000 1,560 Climbing New York Center
11:37AM 40.4342 -75.8864 309° West 367 422 17,000  Level New York Center
11:38AM 40.4617 -76.0194 285° West 377 434 17,000 120 Level New York Center
11:39AM 40.4811 -76.1436 282° West 371 427 17,300 600 Climbing New York Center
11:40AM 40.5036 -76.2875 282° West 392 451 18,300 1,500 Climbing New York Center
11:41AM 40.5225 -76.4144 281° West 399 459 20,400 2,760 Climbing New York Center
11:42AM 40.5453 -76.5886 280° West 399 459 23,800 2,700 Climbing New York Center
11:43AM 40.5692 -76.7381 282° West 411 473 25,800 1,860 Climbing New York Center
11:44AM 40.5886 -76.8875 280° West 416 479 27,600 1,740 Climbing New York Center
11:45AM 40.6136 -77.0483 282° West 427 491 29,400 1,740 Climbing New York Center
11:46AM 40.6361 -77.2089 281° West 439 505 31,100 5,220 Climbing New York Center
11:47AM 40.6589 -77.3672 281° West 445 512 40,000 1,620 Climbing New York Center
11:48AM 40.6811 -77.5253 281° West 445 512 34,400 -780 Descending New York Center
11:51AM 40.7294 -77.8842 280° West 460 529 37,500 1,260 Climbing Cleveland Center
11:52AM 40.7497 -78.0394 280° West 444 511 38,600 1,020 Climbing Cleveland Center
11:53AM 40.7697 -78.1978 280° West 444 511 39,600 660 Climbing Cleveland Center
11:54AM 40.7897 -78.3536 280° West 444 511 40,000 180 Climbing Cleveland Center
11:55AM 40.8092 -78.5092 279° West 444 511 40,000  Level Cleveland Center
11:56AM 40.8308 -78.6678 280° West 444 511 40,000  Level Cleveland Center
11:57AM 40.8500 -78.8236 279° West 444 511 40,000  Level Cleveland Center
11:58AM 40.8731 -78.9794 281° West 444 511 40,000  Level Cleveland Center
11:59AM 40.8919 -79.1356 279° West 444 511 40,000  Level Cleveland Center
12:00PM 40.9103 -79.2917 279° West 444 511 40,000  Level Cleveland Center
12:01PM 40.9308 -79.4453 280° West 444 511 40,000  Level Cleveland Center
12:02PM 40.9489 -79.6017 279° West 444 511 40,000  Level Cleveland Center
12:03PM 40.9669 -79.7553 279° West 438 504 40,000  Level Cleveland Center
12:04PM 40.9844 -79.9064 279° West 433 498 40,000  Level Cleveland Center
12:05PM 41.0019 -80.0603 279° West 428 493 40,000  Level Cleveland Center
12:06PM 41.0192 -80.2117 279° West 428 493 40,000  Level Cleveland Center
12:07PM 41.0383 -80.3656 279° West 428 493 40,000  Level Cleveland Center
12:08PM 41.0553 -80.5197 278° West 428 493 40,000  Level Cleveland Center
12:09PM 41.0719 -80.6767 278° West 428 493 40,000  Level Cleveland Center
12:10PM 41.0883 -80.8311 278° West 428 493 40,000  Level Cleveland Center
12:11PM 41.1044 -80.9881 278° West 428 493 40,000  Level Cleveland Center
12:12PM 41.1186 -81.1289 278° West 428 493 40,000  Level Cleveland Center
12:13PM 41.1322 -81.2833 277° West 428 493 40,000  Level Cleveland Center
12:14PM 41.1542 -81.4519 280° West 428 493 40,000  Level Cleveland Center
12:15PM 41.1694 -81.6147 277° West 428 493 40,000  Level Cleveland Center
12:16PM 41.1847 -81.7694 278° West 428 493 40,000  Level Cleveland Center
12:17PM 41.2017 -81.9217 278° West 428 493 40,000  Level Cleveland Center
12:18PM 41.2183 -82.0819 278° West 428 493 40,000  Level Cleveland Center
12:19PM 41.2286 -82.2453 275° West 436 502 40,000  Level Cleveland Center
12:20PM 41.2431 -82.4056 277° West 441 507 40,000  Level Cleveland Center
12:21PM 41.2572 -82.5442 278° West 446 513 40,000  Level Cleveland Center
12:22PM 41.2711 -82.7022 277° West 441 507 40,000  Level Cleveland Center
12:23PM 41.2847 -82.8600 277° West 441 507 40,000  Level Cleveland Center
12:24PM 41.2900 -83.0150 273° West 436 502 40,000  Level Cleveland Center
12:25PM 41.2928 -83.1728 271° West 431 496 40,000  Level Cleveland Center
12:26PM 41.2933 -83.3275 270° West 431 496 40,000  Level Cleveland Center
12:27PM 41.2997 -83.4853 273° West 426 490 40,000  Level Cleveland Center
12:28PM 41.3042 -83.6403 272° West 426 490 40,000 -540 Level Cleveland Center
12:29PM 41.3186 -83.7958 277° West 426 490 39,000 -960 Descending Cleveland Center
12:30PM 41.3392 -83.9464 280° West 426 490 38,100 -960 Descending Cleveland Center
12:31PM 41.3511 -84.1075 276° West 426 490 37,100 -1,080 Descending Cleveland Center
12:31PM 41.3583 -84.1592 281° West 425 489 36,800 -1,020 Descending Chicago Center
12:32PM 41.3739 -84.3128 278° West 420 483 35,800 -1,740 Descending Chicago Center
12:33PM 41.3883 -84.4694 277° West 427 491 33,300 -2,340 Descending Chicago Center
12:34PM 41.4036 -84.6244 278° West 426 490 31,100 -1,620 Descending Chicago Center
12:35PM 41.4189 -84.7872 277° West 441 507 30,000 -900 Descending Chicago Center
12:36PM 41.4339 -84.9572 277° West 459 528 29,300 -900 Descending Chicago Center
12:37PM 41.4519 -85.1639 277° West 466 536 28,200 -1,020 Descending Chicago Center
12:38PM 41.4661 -85.3392 276° West 470 541 27,200 -1,440 Descending Chicago Center
12:39PM 41.4817 -85.5131 277° West 464 534 25,300 -2,220 Descending Chicago Center
12:40PM 41.4956 -85.6772 276° West 440 506 22,700 -2,520 Descending Chicago Center
12:41PM 41.5086 -85.8336 276° West 426 490 20,200 -2,340 Descending Chicago Center
12:42PM 41.5214 -85.9839 277° West 410 472 17,900 -2,340 Descending Chicago Center
12:43PM 41.5242 -86.1303 272° West 400 460 15,400 -2,460 Descending Chicago Center
12:44PM 41.5233 -86.2722 270° West 387 445 12,900 -2,160 Descending Chicago Center
12:45PM 41.5222 -86.4086 269° West 375 432 11,000 -1,440 Descending Chicago Center
12:46PM 41.5206 -86.5697 269° West 364 419 10,000 -540 Descending Chicago Center
12:47PM 41.5200 -86.7031 270° West 361 415 10,000 -300 Level Chicago Center
12:48PM 41.5189 -86.8236 269° West 321 369 9,500 -780 Descending Chicago Center
12:50PM 41.5178 -86.9342 269° West 301 346 8,500 -1,020 Descending Chicago Center
12:51PM 41.5169 -87.0414 269° West 293 337 7,500 -1,020 Descending Chicago Center
12:52PM 41.5178 -87.1500 271° West 292 336 6,500 -1,080 Descending Chicago Center
12:52PM 41.5167 -87.2167 269° West 292 336 6,000 -1,020 Descending Chicago TRACON
12:53PM 41.5167 -87.3000 270° West 289 333 5,200 -900 Descending Chicago TRACON
12:54PM 41.5139 -87.3828 267° West 289 333 4,500 -720 Descending Chicago Center
12:55PM 41.5122 -87.4858 269° West 284 327 4,000 -300 Descending Chicago Center
12:56PM 41.5106 -87.5856 269° West 278 320 4,000  Level Chicago Center
12:57PM 41.5272 -87.6847 283° West 276 318 4,000 -540 Level Chicago Center
12:58PM 41.5675 -87.7964 296° West 281 323 2,900 -780 Descending Chicago Center
12:59PM 41.6122 -87.8739 308° West 274 315 2,500 -240 Descending Chicago Center
01:00PM 41.6700 -87.8922 347° North 254 292 2,500 -60 Level Chicago Center
01:01PM 41.7167 -87.8333 43° Northeast 193 222 2,400 -480 Descending Chicago TRACON
01:02PM 41.7500 -87.8000 37° Northeast 140 161 1,600 -780 Descending Chicago TRACON
01:03PM 41.7667 -87.7667 56° Northeast 128 147 900 -720 Descending Chicago TRACON
01:05PM 41.7833 -87.7500 43° Northeast  Level FlightAware Approximate